createdAt,value
2023-05-05T17:17:02.648Z,7853.425
2023-05-05T17:18:07.470Z,7706.889
2023-05-05T17:19:06.723Z,7571.427
2023-05-05T17:20:06.984Z,7256.847
2023-05-05T17:21:06.177Z,6806.002
2023-05-05T17:22:06.372Z,6370.245
2023-05-05T17:23:06.642Z,6128.050
2023-05-05T17:24:06.769Z,6047.961
2023-05-05T17:25:07.147Z,6048.442
2023-05-05T17:26:06.510Z,6077.012
2023-05-05T17:27:06.704Z,6156.780
2023-05-05T17:28:07.104Z,6290.477
2023-05-05T17:29:06.403Z,6387.579
2023-05-05T17:30:06.956Z,6404.913
2023-05-05T17:31:07.385Z,6288.711
2023-05-05T17:32:07.076Z,6089.370
2023-05-05T17:33:06.410Z,5840.916
2023-05-05T17:34:06.640Z,5622.154
2023-05-05T17:35:06.950Z,5502.582
2023-05-05T17:36:06.224Z,5479.149
2023-05-05T17:37:06.361Z,5520.237
2023-05-05T17:38:06.616Z,5554.103
2023-05-05T17:39:06.926Z,5499.693
2023-05-05T17:40:07.180Z,5362.626
2023-05-05T17:41:06.414Z,5146.753
2023-05-05T17:42:06.634Z,4895.892
2023-05-05T17:43:06.849Z,4643.425
2023-05-05T17:44:07.070Z,4425.146
2023-05-05T17:45:06.412Z,4240.250
2023-05-05T17:46:07.107Z,4069.317
2023-05-05T17:47:06.387Z,3874.631
2023-05-05T17:48:06.898Z,3668.549
2023-05-05T17:49:07.654Z,3466.158
2023-05-05T17:51:07.150Z,3043.722
2023-05-05T17:52:06.328Z,2828.652
2023-05-05T17:53:06.594Z,2609.409
2023-05-05T17:54:06.868Z,2388.240
2023-05-05T17:55:07.358Z,2191.948
2023-05-05T17:56:08.959Z,2004.966
2023-05-05T17:57:06.544Z,1823.441
2023-05-05T17:58:06.778Z,1671.447
2023-05-05T17:59:07.028Z,1551.233
2023-05-05T18:00:06.267Z,1454.772
2023-05-05T18:01:06.764Z,1362.003
2023-05-05T18:02:07.204Z,1259.604
2023-05-05T18:04:06.738Z,1080.005
2023-05-05T18:05:07.321Z,1019.817
2023-05-05T18:06:06.733Z,983.383
2023-05-05T18:07:07.059Z,954.494
2023-05-05T18:08:06.305Z,923.677
2023-05-05T18:09:06.482Z,887.244
2023-05-05T18:10:06.836Z,850.490
2023-05-05T18:11:07.110Z,815.340
2023-05-05T18:12:06.258Z,777.462
2023-05-05T18:13:06.753Z,732.682
2023-05-05T18:14:06.972Z,682.607
2023-05-05T18:15:06.231Z,630.925
2023-05-05T18:16:06.696Z,578.602
2023-05-05T18:17:06.932Z,529.008
2023-05-05T18:18:07.183Z,483.105
2023-05-05T18:19:06.663Z,442.659
2023-05-05T18:20:06.886Z,404.781
2023-05-05T18:21:07.142Z,367.224
2023-05-05T18:22:06.363Z,333.038
2023-05-05T18:23:06.633Z,298.690
2023-05-05T18:25:07.892Z,240.277
2023-05-05T18:26:06.759Z,212.386
2023-05-05T18:27:07.003Z,186.938
2023-05-05T18:28:06.146Z,164.869
2023-05-05T18:29:06.299Z,146.840
2023-05-05T18:30:06.811Z,134.196
2023-05-05T18:31:07.465Z,126.608
2023-05-05T18:32:06.995Z,122.551
2023-05-05T18:33:06.681Z,119.778
2023-05-05T18:34:07.046Z,117.620
2023-05-05T18:35:06.336Z,115.622
2023-05-05T18:36:06.630Z,113.161
2023-05-05T18:37:06.994Z,110.754
2023-05-05T18:38:06.410Z,107.535
2023-05-05T18:39:07.002Z,103.005
2023-05-05T18:40:09.224Z,97.459
2023-05-05T18:41:06.726Z,91.940
2023-05-05T18:42:06.951Z,87.357
2023-05-05T18:43:07.156Z,82.229
2023-05-05T18:44:06.451Z,76.799
2023-05-05T18:45:06.859Z,71.048
2023-05-05T18:46:07.378Z,65.225
2023-05-05T18:47:07.001Z,59.528
2023-05-05T18:48:06.686Z,53.741
2023-05-05T18:49:06.985Z,47.829
2023-05-05T18:50:06.322Z,42.488
2023-05-05T18:51:06.962Z,37.584
2023-05-05T18:52:07.134Z,33.491
2023-05-05T18:53:06.323Z,30.112
2023-05-05T18:54:06.784Z,27.160
2023-05-05T18:55:07.291Z,24.503
2023-05-05T18:56:06.812Z,22.033
2023-05-05T18:57:07.124Z,19.412
2023-05-05T18:58:06.322Z,16.746
2023-05-05T18:59:06.487Z,14.133
2023-05-05T19:00:06.786Z,11.583
2023-05-05T19:01:07.530Z,9.131
2023-05-05T19:02:06.761Z,7.071
2023-05-05T19:03:07.881Z,5.466
2023-05-05T19:04:18.717Z,4.342
2023-05-05T19:05:07.234Z,3.540
2023-05-05T19:06:06.517Z,2.943
2023-05-05T19:07:08.249Z,2.497
2023-05-05T19:10:06.838Z,1.578
2023-05-05T19:11:07.063Z,1.382
2023-05-05T19:12:06.319Z,1.266
2023-05-05T19:13:06.820Z,1.159
2023-05-05T19:14:07.137Z,1.061
2023-05-05T19:15:06.388Z,0.954
2023-05-05T19:16:07.209Z,0.838
2023-05-05T19:17:07.264Z,0.713
2023-05-05T19:18:06.804Z,0.589
2023-05-05T19:19:07.013Z,0.481
2023-05-05T19:22:10.919Z,0.303
2023-05-05T19:23:07.237Z,0.276
2023-05-05T19:27:06.297Z,0.214
2023-05-05T19:28:06.425Z,0.214
2023-05-05T19:29:06.853Z,0.205
2023-05-05T19:30:07.181Z,0.214
2023-05-05T19:31:06.290Z,0.214
2023-05-05T19:32:06.954Z,0.205
2023-05-05T19:33:06.435Z,0.196
2023-05-05T19:34:06.825Z,0.187
2023-05-05T19:35:07.043Z,0.178
2023-05-05T19:36:06.265Z,0.169
2023-05-05T19:37:06.401Z,0.161
2023-05-05T19:38:06.649Z,0.152
2023-05-05T19:39:06.913Z,0.143
2023-05-05T19:40:07.404Z,0.134
2023-05-05T19:41:06.680Z,0.134
2023-05-05T19:42:06.995Z,0.134
2023-05-05T19:43:06.186Z,0.134
2023-05-05T19:44:06.361Z,0.134
2023-05-05T19:45:06.538Z,0.134
2023-05-05T19:46:07.156Z,0.134
2023-05-05T19:47:06.693Z,0.134
2023-05-05T19:48:06.627Z,0.125
2023-05-05T19:49:06.819Z,0.125
2023-05-05T19:50:07.602Z,0.125
2023-05-05T19:51:07.081Z,0.116
2023-05-05T19:52:06.260Z,0.116
2023-05-05T19:53:07.252Z,0.107
2023-05-05T19:54:06.424Z,0.107
2023-05-05T19:55:06.703Z,0.098
2023-05-05T19:56:06.886Z,0.098
2023-05-05T19:57:08.941Z,0.098
2023-05-05T19:58:07.100Z,0.089
2023-05-05T19:59:06.457Z,0.089
2023-05-05T20:00:07.509Z,0.089
2023-05-05T20:01:07.133Z,0.089
2023-05-05T20:02:07.311Z,0.089
2023-05-05T20:03:07.207Z,0.089
2023-05-05T20:04:06.859Z,0.089
2023-05-05T20:05:07.026Z,0.098
2023-05-05T20:06:06.157Z,0.098
2023-05-05T20:07:06.369Z,0.098
2023-05-05T20:08:06.478Z,0.107
2023-05-05T20:09:06.679Z,0.107
2023-05-05T20:10:08.050Z,0.116
2023-05-05T20:11:06.339Z,0.116
2023-05-05T20:12:06.636Z,0.116
2023-05-05T20:13:07.257Z,0.116
2023-05-05T20:14:06.459Z,0.116
2023-05-05T20:15:06.705Z,0.116
2023-05-05T20:16:07.357Z,0.107
2023-05-05T20:17:06.705Z,0.107
2023-05-05T20:18:07.259Z,0.107
2023-05-05T20:19:06.447Z,0.107
2023-05-05T20:20:06.729Z,0.098
2023-05-05T20:21:06.933Z,0.098
2023-05-05T20:22:07.281Z,0.098
2023-05-05T20:23:06.438Z,0.098
2023-05-05T20:24:06.736Z,0.098
2023-05-05T20:25:06.910Z,0.098
2023-05-05T20:26:07.215Z,0.098
2023-05-05T20:27:06.403Z,0.098
2023-05-05T20:28:06.604Z,0.098
2023-05-05T20:29:07.265Z,0.098
2023-05-05T20:30:06.498Z,0.098
2023-05-05T20:31:07.047Z,0.098
2023-05-05T20:32:06.725Z,0.098
2023-05-05T20:33:07.385Z,0.098
2023-05-05T20:34:06.646Z,0.098
2023-05-05T20:35:06.865Z,0.098
2023-05-05T20:36:07.022Z,0.098
2023-05-05T20:37:06.543Z,0.098
2023-05-05T20:38:06.832Z,0.098
2023-05-05T20:39:07.132Z,0.098
2023-05-05T20:40:06.982Z,0.098
2023-05-05T20:41:06.334Z,0.089
2023-05-05T20:42:06.524Z,0.089
2023-05-05T20:43:06.994Z,0.089
2023-05-05T20:44:06.106Z,0.089
2023-05-05T20:45:06.405Z,0.089
2023-05-05T20:46:06.600Z,0.089
2023-05-05T20:47:07.378Z,0.089
2023-05-05T20:48:07.060Z,0.089
2023-05-05T20:49:06.327Z,0.089
2023-05-05T20:50:06.852Z,0.089
2023-05-05T20:51:07.133Z,0.089
2023-05-05T20:52:06.287Z,0.089
2023-05-05T20:53:06.606Z,0.098
2023-05-05T20:54:06.760Z,0.089
2023-05-05T20:55:07.006Z,0.089
2023-05-05T20:56:07.263Z,0.089
2023-05-05T20:57:06.884Z,0.089
2023-05-05T20:58:07.043Z,0.089
2023-05-05T20:59:06.534Z,0.089
2023-05-05T21:00:07.164Z,0.089
2023-05-05T21:01:07.047Z,0.089
2023-05-05T21:02:06.536Z,0.089
2023-05-05T21:03:07.121Z,0.089
2023-05-05T21:04:06.328Z,0.089
2023-05-05T21:05:06.621Z,0.089
2023-05-05T21:06:06.717Z,0.089
2023-05-05T21:07:06.968Z,0.080
2023-05-05T21:08:09.664Z,0.080
2023-05-05T21:09:06.852Z,0.080
2023-05-05T21:10:07.164Z,0.080
2023-05-05T21:12:06.654Z,0.080
2023-05-05T21:13:07.480Z,0.080
2023-05-05T21:14:06.699Z,0.080
2023-05-05T21:15:06.951Z,0.080
2023-05-05T21:16:06.317Z,0.080
2023-05-05T21:17:07.361Z,0.080
2023-05-05T21:18:07.009Z,0.089
2023-05-05T21:19:06.131Z,0.080
2023-05-05T21:20:06.320Z,0.080
2023-05-05T21:21:06.492Z,0.080
2023-05-05T21:22:06.709Z,0.080
2023-05-05T21:23:06.928Z,0.080
2023-05-05T21:24:10.162Z,0.080
2023-05-05T21:25:06.431Z,0.080
2023-05-05T21:26:06.662Z,0.080
2023-05-05T21:27:06.848Z,0.080
2023-05-05T21:28:07.169Z,0.080
2023-05-05T21:29:06.366Z,0.080
2023-05-05T21:30:07.719Z,0.080
2023-05-05T21:31:26.690Z,0.080
2023-05-05T21:34:06.659Z,0.080
2023-05-05T21:35:06.904Z,0.080
2023-05-05T21:36:07.279Z,0.080
2023-05-05T21:37:06.600Z,0.080
2023-05-05T21:38:06.749Z,0.080
2023-05-05T21:39:09.568Z,0.080
2023-05-05T21:40:06.827Z,0.089
2023-05-05T21:41:07.032Z,0.080
2023-05-05T21:44:06.747Z,0.089
2023-05-05T21:45:06.886Z,0.080
2023-05-05T21:46:07.304Z,0.080
2023-05-05T21:49:06.534Z,0.080
2023-05-05T21:50:06.779Z,0.080
2023-05-05T21:51:07.136Z,0.080
2023-05-05T21:52:06.322Z,0.080
2023-05-05T21:53:06.496Z,0.080
2023-05-05T21:54:06.666Z,0.071
2023-05-05T21:55:06.840Z,0.071
2023-05-05T21:56:07.055Z,0.071
2023-05-05T21:57:06.185Z,0.071
2023-05-05T21:58:06.384Z,0.071
2023-05-05T21:59:06.567Z,0.071
2023-05-05T22:00:06.928Z,0.071
2023-05-05T22:01:06.536Z,0.071
2023-05-05T22:02:07.157Z,0.071
2023-05-05T22:03:06.888Z,0.080
2023-05-05T22:04:08.307Z,0.080
2023-05-05T22:05:06.506Z,0.080
2023-05-05T22:06:06.791Z,0.080
2023-05-05T22:07:07.088Z,0.080
2023-05-05T22:08:06.261Z,0.080
2023-05-05T22:09:06.581Z,0.080
2023-05-05T22:10:06.833Z,0.089
2023-05-05T22:11:07.009Z,0.107
2023-05-05T22:12:06.465Z,0.125
2023-05-05T22:13:07.007Z,0.134
2023-05-05T22:14:06.293Z,0.134
2023-05-05T22:15:10.123Z,0.125
2023-05-05T22:16:06.744Z,0.125
2023-05-05T22:17:07.035Z,0.125
2023-05-05T22:19:07.045Z,0.116
2023-05-05T22:20:06.562Z,0.116
2023-05-05T22:21:06.969Z,0.116
2023-05-05T22:22:06.157Z,0.107
2023-05-05T22:23:06.417Z,0.107
2023-05-05T22:24:06.706Z,0.107
2023-05-05T22:25:06.954Z,0.107
2023-05-05T22:26:06.178Z,0.107
2023-05-05T22:27:06.394Z,0.107
2023-05-05T22:28:06.701Z,0.116
2023-05-05T22:29:06.911Z,0.116
2023-05-05T22:30:07.143Z,0.116
2023-05-05T22:31:06.604Z,0.116
2023-05-05T22:32:06.843Z,0.116
2023-05-05T22:33:07.726Z,0.107
2023-05-05T22:34:07.089Z,0.107
2023-05-05T22:35:06.244Z,0.098
2023-05-05T22:36:06.490Z,0.098
2023-05-05T22:37:06.664Z,0.089
2023-05-05T22:38:07.004Z,0.089
2023-05-05T22:39:06.316Z,0.089
2023-05-05T22:40:06.508Z,0.089
2023-05-05T22:41:06.860Z,0.089
2023-05-05T22:42:07.044Z,0.089
2023-05-05T22:43:06.277Z,0.089
2023-05-05T22:44:06.652Z,0.089
2023-05-05T22:45:07.166Z,0.089
2023-05-05T22:46:09.551Z,0.089
2023-05-05T22:47:06.835Z,0.089
2023-05-05T22:48:08.005Z,0.089
2023-05-05T22:49:06.407Z,0.089
2023-05-05T22:50:06.699Z,0.089
2023-05-05T22:51:06.902Z,0.089
2023-05-05T22:52:07.146Z,0.098
2023-05-05T22:53:06.690Z,0.098
2023-05-05T22:54:07.140Z,0.098
2023-05-05T22:55:06.892Z,0.089
2023-05-05T22:56:07.399Z,0.089
2023-05-05T22:57:06.810Z,0.089
2023-05-05T22:58:07.350Z,0.089
2023-05-05T22:59:06.536Z,0.089
2023-05-05T23:00:06.999Z,0.089
2023-05-05T23:01:06.578Z,0.089
2023-05-05T23:02:06.732Z,0.089
2023-05-05T23:03:07.525Z,0.089
2023-05-05T23:04:06.981Z,0.089
2023-05-05T23:05:06.116Z,0.089
2023-05-05T23:06:06.364Z,0.089
2023-05-05T23:07:06.668Z,0.089
2023-05-05T23:08:06.864Z,0.089
2023-05-05T23:09:07.134Z,0.080
2023-05-05T23:10:06.340Z,0.080
2023-05-05T23:11:06.662Z,0.080
2023-05-05T23:12:06.858Z,0.080
2023-05-05T23:13:07.508Z,0.080
2023-05-05T23:14:06.858Z,0.080
2023-05-05T23:15:07.182Z,0.080
2023-05-05T23:16:06.635Z,0.080
2023-05-05T23:17:10.481Z,0.080
2023-05-05T23:18:07.222Z,0.089
2023-05-05T23:20:06.761Z,0.089
2023-05-05T23:21:07.208Z,0.089
2023-05-05T23:22:06.538Z,0.089
2023-05-05T23:23:06.855Z,0.089
2023-05-05T23:24:07.164Z,0.089
2023-05-05T23:25:06.466Z,0.089
2023-05-05T23:26:06.808Z,0.089
2023-05-05T23:27:06.980Z,0.089
2023-05-05T23:28:06.190Z,0.089
2023-05-05T23:29:06.428Z,0.098
2023-05-05T23:30:06.632Z,0.098
2023-05-05T23:31:07.301Z,0.098
2023-05-05T23:32:06.680Z,0.098
2023-05-05T23:33:07.332Z,0.098
2023-05-05T23:34:06.546Z,0.098
2023-05-05T23:35:06.858Z,0.089
2023-05-05T23:36:07.179Z,0.089
2023-05-05T23:37:09.901Z,0.089
2023-05-05T23:39:06.263Z,0.089
2023-05-05T23:40:06.461Z,0.089
2023-05-05T23:41:06.714Z,0.089
2023-05-05T23:42:06.924Z,0.089
2023-05-05T23:43:07.092Z,0.089
2023-05-05T23:44:06.232Z,0.089
2023-05-05T23:45:06.413Z,0.089
2023-05-05T23:46:07.348Z,0.098
2023-05-05T23:47:09.587Z,0.098
2023-05-05T23:48:07.353Z,0.098
2023-05-05T23:49:06.607Z,0.089
2023-05-05T23:50:06.756Z,0.089
2023-05-05T23:51:07.193Z,0.089
2023-05-05T23:53:06.572Z,0.089
2023-05-05T23:54:06.783Z,0.089
2023-05-05T23:55:07.191Z,0.089
2023-05-05T23:56:06.866Z,0.089
2023-05-05T23:57:07.061Z,0.089
2023-05-05T23:58:06.233Z,0.089
2023-05-05T23:59:06.456Z,0.089
